createdAt,value
2022-11-03T00:02:59.722Z,99574.29
2022-11-03T00:06:12.581Z,99575.73
2022-11-03T00:09:27.370Z,99577.67
2022-11-03T00:12:39.913Z,99581.54
2022-11-03T00:15:57.399Z,99583.48
2022-11-03T00:19:10.968Z,99594.10
2022-11-03T00:22:23.355Z,99592.44
2022-11-03T00:25:35.702Z,99587.34
2022-11-03T00:28:50.470Z,99594.10
2022-11-03T00:32:02.901Z,99596.30
2022-11-03T00:35:16.055Z,99592.66
2022-11-03T00:38:28.708Z,99586.53
2022-11-03T00:41:41.769Z,99588.07
2022-11-03T00:44:54.285Z,99593.15
2022-11-03T00:48:21.030Z,99574.81
2022-11-03T00:51:34.946Z,99587.14
2022-11-03T00:54:51.320Z,99591.01
2022-11-03T00:58:02.413Z,99574.86
2022-11-03T01:01:17.621Z,99586.92
2022-11-03T01:04:44.405Z,99592.45
2022-11-03T01:07:56.796Z,99593.79
2022-11-03T01:11:30.988Z,99576.36
2022-11-03T01:14:46.112Z,99606.34
2022-11-03T01:17:58.836Z,99612.38
2022-11-03T01:21:11.864Z,99604.28
2022-11-03T01:24:24.477Z,99602.61
2022-11-03T01:27:37.759Z,99609.72
2022-11-03T01:30:50.123Z,99609.94
2022-11-03T01:34:03.506Z,99592.78
2022-11-03T01:37:16.125Z,99610.57
2022-11-03T01:40:29.198Z,99612.24
2022-11-03T01:43:43.873Z,99604.41
2022-11-03T01:47:00.781Z,99602.61
2022-11-03T01:50:16.896Z,99604.06
2022-11-03T01:53:30.160Z,99599.10
2022-11-03T01:56:46.788Z,99601.98
2022-11-03T02:00:00.566Z,99590.63
2022-11-03T02:03:13.738Z,99590.00
2022-11-03T02:06:28.616Z,99573.11
2022-11-03T02:09:41.100Z,99589.63
2022-11-03T02:12:54.423Z,99584.20
2022-11-03T02:16:08.210Z,99593.52
2022-11-03T02:19:26.548Z,99590.95
2022-11-03T02:23:13.822Z,99598.19
2022-11-03T02:26:26.602Z,99588.91
2022-11-03T02:29:39.037Z,99599.17
2022-11-03T02:33:00.461Z,99594.09
2022-11-03T02:36:18.115Z,99595.79
2022-11-03T02:39:35.207Z,99608.93
2022-11-03T02:42:46.888Z,99602.05
2022-11-03T02:46:01.644Z,99568.75
2022-11-03T02:49:13.850Z,99605.08
2022-11-03T02:52:47.205Z,99612.91
2022-11-03T02:56:06.403Z,99613.86
2022-11-03T02:59:22.698Z,99615.05
2022-11-03T03:02:39.689Z,99617.95
2022-11-03T03:05:54.391Z,99614.06
2022-11-03T03:09:11.306Z,99610.94
2022-11-03T03:12:26.348Z,99588.23
2022-11-03T03:15:46.174Z,99613.32
2022-11-03T03:19:04.419Z,99608.02
2022-11-03T03:22:23.873Z,99615.48
2022-11-03T03:25:40.963Z,99612.56
2022-11-03T03:28:54.102Z,99611.84
2022-11-03T03:32:11.070Z,99611.32
2022-11-03T03:35:24.142Z,99606.75
2022-11-03T03:38:41.695Z,99615.31
2022-11-03T03:41:55.536Z,99616.16
2022-11-03T03:45:10.546Z,99611.11
2022-11-03T03:48:23.545Z,99605.07
2022-11-03T03:51:38.403Z,99617.35
2022-11-03T03:54:51.112Z,99609.86
2022-11-03T03:58:03.431Z,99605.66
2022-11-03T04:01:19.033Z,99613.81
2022-11-03T04:04:31.970Z,99610.77
2022-11-03T04:07:53.229Z,99597.88
2022-11-03T04:11:19.853Z,99602.33
2022-11-03T04:14:46.269Z,99611.22
2022-11-03T04:18:12.999Z,99612.41
2022-11-03T04:21:39.624Z,99609.27
2022-11-03T04:24:53.746Z,99611.30
2022-11-03T04:28:06.641Z,99600.91
2022-11-03T04:31:21.601Z,99605.59
2022-11-03T04:34:34.157Z,99583.34
2022-11-03T04:37:47.862Z,99610.32
2022-11-03T04:41:03.522Z,99608.91
2022-11-03T04:44:21.009Z,99604.08
2022-11-03T04:47:34.601Z,99605.80
2022-11-03T04:50:49.701Z,99590.02
2022-11-03T04:54:06.471Z,99598.92
2022-11-03T04:57:19.393Z,99604.09
2022-11-03T05:00:31.802Z,99614.47
2022-11-03T05:03:45.926Z,99607.37
2022-11-03T05:06:59.478Z,99616.58
2022-11-03T05:10:15.247Z,99616.98
2022-11-03T05:13:30.572Z,99614.87
2022-11-03T05:16:42.942Z,99624.25
2022-11-03T05:19:57.776Z,99623.31
2022-11-03T05:23:10.975Z,99625.06
2022-11-03T05:26:29.209Z,99622.59
2022-11-03T05:29:44.449Z,99620.06
2022-11-03T05:32:56.874Z,99622.06
2022-11-03T05:36:17.452Z,99622.36
2022-11-03T05:39:39.466Z,99619.48
2022-11-03T05:42:54.022Z,99623.91
2022-11-03T05:46:09.450Z,99619.94
2022-11-03T05:49:22.116Z,99615.92
2022-11-03T05:52:35.323Z,99620.25
2022-11-03T05:55:48.959Z,99616.03
2022-11-03T05:59:03.178Z,99608.94
2022-11-03T06:02:24.222Z,99614.22
2022-11-03T06:05:38.875Z,99621.55
2022-11-03T06:08:51.419Z,99611.92
2022-11-03T06:12:07.013Z,99605.14
2022-11-03T06:15:33.997Z,99611.22
2022-11-03T06:18:46.661Z,99595.59
2022-11-03T06:22:01.878Z,99612.30
2022-11-03T06:25:24.034Z,99616.55
2022-11-03T06:28:41.145Z,99622.58
2022-11-03T06:31:54.200Z,99619.93
2022-11-03T06:35:06.970Z,99627.75
2022-11-03T06:38:25.974Z,99632.40
2022-11-03T06:41:42.138Z,99626.37
2022-11-03T06:44:57.144Z,99625.52
2022-11-03T06:48:16.464Z,99637.36
2022-11-03T06:51:31.464Z,99634.52
2022-11-03T06:54:43.498Z,99634.97
2022-11-03T06:57:59.909Z,99632.66
2022-11-03T07:01:21.140Z,99633.70
2022-11-03T07:04:34.709Z,99642.20
2022-11-03T07:07:46.930Z,99630.98
2022-11-03T07:11:11.348Z,99628.84
2022-11-03T07:14:27.809Z,99624.02
2022-11-03T07:17:40.248Z,99619.75
2022-11-03T07:20:53.431Z,99623.31
2022-11-03T07:24:09.731Z,99610.16
2022-11-03T07:27:28.474Z,99610.06
2022-11-03T07:30:42.607Z,99606.41
2022-11-03T07:33:54.835Z,99604.95
2022-11-03T07:37:08.055Z,99595.79
2022-11-03T07:40:25.993Z,99598.97
2022-11-03T07:43:40.907Z,99594.89
2022-11-03T07:46:53.944Z,99583.06
2022-11-03T07:50:06.175Z,99579.25
2022-11-03T07:53:26.223Z,99570.79
2022-11-03T07:56:43.786Z,99560.60
2022-11-03T07:59:58.764Z,99550.45
2022-11-03T08:03:14.801Z,99547.30
2022-11-03T08:06:26.973Z,99529.80
2022-11-03T08:09:39.184Z,99535.42
2022-11-03T08:12:51.311Z,99524.02
2022-11-03T08:16:03.661Z,99508.30
2022-11-03T08:19:15.866Z,99501.39
2022-11-03T08:22:27.925Z,99495.46
2022-11-03T08:25:40.156Z,99487.05
2022-11-03T08:28:52.304Z,99484.03
2022-11-03T08:32:04.793Z,99488.72
2022-11-03T08:35:17.535Z,99482.55
2022-11-03T08:38:29.609Z,99483.15
2022-11-03T08:41:41.784Z,99482.44
2022-11-03T08:44:54.004Z,99470.61
2022-11-03T08:48:06.292Z,99466.77
2022-11-03T08:51:19.186Z,99463.25
2022-11-03T08:54:31.376Z,99456.45
2022-11-03T08:57:43.564Z,99451.50
2022-11-03T09:00:55.887Z,99455.34
2022-11-03T09:04:08.683Z,99441.53
2022-11-03T09:07:21.196Z,99450.50
2022-11-03T09:10:36.916Z,99442.75
2022-11-03T09:13:48.781Z,99453.20
2022-11-03T09:20:15.292Z,99445.65
2022-11-03T09:23:27.463Z,99446.45
2022-11-03T09:26:39.810Z,99436.78
2022-11-03T09:30:12.074Z,99441.74
2022-11-03T09:33:06.268Z,99435.70
2022-11-03T09:36:18.609Z,99433.02
2022-11-03T09:39:30.892Z,99428.94
2022-11-03T09:42:44.923Z,99427.20
2022-11-03T09:45:57.164Z,99423.98
2022-11-03T09:49:10.991Z,99414.69
2022-11-03T09:52:27.430Z,99407.30
2022-11-03T09:55:43.356Z,99409.47
2022-11-03T09:58:56.003Z,99411.13
2022-11-03T10:02:08.235Z,99403.09
2022-11-03T10:05:25.499Z,99401.14
2022-11-03T10:08:41.959Z,99388.84
2022-11-03T10:11:55.480Z,99382.45
2022-11-03T10:15:08.024Z,99376.99
2022-11-03T10:18:21.008Z,99377.67
2022-11-03T10:21:38.069Z,99373.50
2022-11-03T10:24:50.131Z,99369.55
2022-11-03T10:28:27.381Z,99365.96
2022-11-03T10:31:45.056Z,99367.96
2022-11-03T10:34:57.184Z,99354.25
2022-11-03T10:38:31.690Z,99357.75
2022-11-03T10:41:43.784Z,99352.67
2022-11-03T10:44:58.397Z,99341.66
2022-11-03T10:48:13.769Z,99344.17
2022-11-03T10:51:26.079Z,99333.44
2022-11-03T10:54:40.575Z,99337.29
2022-11-03T10:57:55.465Z,99331.61
2022-11-03T11:01:07.968Z,99316.41
2022-11-03T11:04:23.686Z,99310.86
2022-11-03T11:07:40.779Z,99306.43
2022-11-03T11:10:53.863Z,99298.66
2022-11-03T11:17:53.574Z,99275.95
2022-11-03T11:21:07.545Z,99273.05
2022-11-03T11:24:20.657Z,99258.94
2022-11-03T11:28:03.048Z,99251.11
2022-11-03T11:31:36.787Z,99258.81
2022-11-03T11:34:48.927Z,99250.32
2022-11-03T11:38:01.388Z,99250.11
2022-11-03T11:41:14.233Z,99237.17
2022-11-03T11:45:07.196Z,99233.63
2022-11-03T11:48:25.511Z,99221.05
2022-11-03T11:51:41.616Z,99218.80
2022-11-03T11:54:54.027Z,99219.14
2022-11-03T11:58:08.450Z,99211.61
2022-11-03T12:01:34.202Z,99190.28
2022-11-03T12:04:48.684Z,99189.94
2022-11-03T12:08:01.553Z,99180.75
2022-11-03T12:11:16.812Z,99167.78
2022-11-03T12:14:38.936Z,99170.05
2022-11-03T12:17:51.553Z,99164.25
2022-11-03T12:21:03.897Z,99148.63
2022-11-03T12:24:45.938Z,99158.52
2022-11-03T12:27:58.268Z,99145.31
2022-11-03T12:31:10.985Z,99149.88
2022-11-03T12:34:24.135Z,99136.20
2022-11-03T12:37:36.336Z,99131.97
2022-11-03T12:40:48.669Z,99126.97
2022-11-03T12:44:01.255Z,99122.34
2022-11-03T12:50:40.648Z,99120.61
2022-11-03T12:53:53.371Z,99119.28
2022-11-03T12:57:05.650Z,99112.21
2022-11-03T13:00:20.906Z,99112.59
2022-11-03T13:03:34.130Z,99111.09
2022-11-03T13:06:46.469Z,99111.95
2022-11-03T13:09:58.707Z,99101.23
2022-11-03T13:13:11.144Z,99098.25
2022-11-03T13:16:23.356Z,99103.92
2022-11-03T13:19:35.730Z,99099.24
2022-11-03T13:22:48.661Z,99093.39
2022-11-03T13:26:01.453Z,99089.20
2022-11-03T13:29:13.903Z,99085.53
2022-11-03T13:32:26.203Z,99083.35
2022-11-03T13:35:38.435Z,99074.82
2022-11-03T13:38:52.519Z,99077.67
2022-11-03T13:42:04.884Z,99062.10
2022-11-03T13:45:18.629Z,99063.61
2022-11-03T13:49:33.146Z,99055.19
2022-11-03T13:51:45.249Z,99065.75
2022-11-03T14:01:27.804Z,99053.67
2022-11-03T14:07:53.839Z,99044.59
2022-11-03T14:11:08.754Z,99046.27
2022-11-03T14:14:21.265Z,99033.20
2022-11-03T14:17:36.181Z,99039.20
2022-11-03T14:23:55.678Z,99024.59
2022-11-03T14:27:09.016Z,99018.03
2022-11-03T14:30:22.712Z,99017.33
2022-11-03T14:33:35.720Z,99017.80
2022-11-03T14:36:48.507Z,99013.23
2022-11-03T14:40:01.137Z,99005.67
2022-11-03T14:43:13.481Z,99013.48
2022-11-03T14:46:26.017Z,99012.41
2022-11-03T14:49:39.872Z,99007.98
2022-11-03T14:52:55.000Z,99008.42
2022-11-03T14:56:07.222Z,99003.81
2022-11-03T14:59:19.706Z,99001.77
2022-11-03T15:02:32.629Z,98994.25
2022-11-03T15:05:53.119Z,98995.16
2022-11-03T15:09:05.422Z,98994.52
2022-11-03T15:12:17.856Z,98993.92
2022-11-03T15:15:30.176Z,98996.25
2022-11-03T15:18:44.159Z,98985.30
2022-11-03T15:21:56.322Z,98993.39
2022-11-03T15:28:24.719Z,98990.00
2022-11-03T15:31:37.259Z,98992.55
2022-11-03T15:34:49.491Z,98984.47
2022-11-03T15:38:02.752Z,98990.48
2022-11-03T15:41:21.326Z,98978.45
2022-11-03T15:44:34.736Z,98979.49
2022-11-03T15:47:47.175Z,98975.45
2022-11-03T15:50:59.359Z,98984.98
2022-11-03T15:54:12.214Z,98980.23
2022-11-03T15:57:24.566Z,98977.43
2022-11-03T16:00:36.919Z,98988.41
2022-11-03T16:03:49.117Z,98992.75
2022-11-03T16:07:07.757Z,98984.77
2022-11-03T16:10:17.227Z,98978.76
2022-11-03T16:13:29.882Z,98970.95
2022-11-03T16:16:42.437Z,98971.66
2022-11-03T16:19:55.397Z,98970.11
2022-11-03T16:23:07.787Z,98961.86
2022-11-03T16:26:22.249Z,98952.48
2022-11-03T16:29:35.017Z,98944.68
2022-11-03T16:32:47.262Z,98948.60
2022-11-03T16:35:59.472Z,98940.34
2022-11-03T16:39:11.978Z,98936.73
2022-11-03T16:42:24.368Z,98939.50
2022-11-03T16:45:38.110Z,98898.58
2022-11-03T16:48:51.139Z,98947.93
2022-11-03T16:52:03.391Z,98926.94
2022-11-03T16:55:17.201Z,98942.17
2022-11-03T16:58:30.200Z,98944.69
2022-11-03T17:01:42.829Z,98933.93
2022-11-03T17:04:55.226Z,98933.52
2022-11-03T17:08:20.489Z,98936.73
2022-11-03T17:11:25.553Z,98934.47
2022-11-03T17:14:38.094Z,98930.27
2022-11-03T17:17:50.629Z,98918.39
2022-11-03T17:21:03.109Z,98913.09
2022-11-03T17:24:16.712Z,98909.88
2022-11-03T17:27:32.951Z,98901.77
2022-11-03T17:30:48.044Z,98893.09
2022-11-03T17:34:01.472Z,98887.45
2022-11-03T17:37:14.043Z,98876.84
2022-11-03T17:40:29.457Z,98876.54
2022-11-03T17:43:44.959Z,98865.66
2022-11-03T17:46:57.412Z,98863.15
2022-11-03T17:50:10.537Z,98863.70
2022-11-03T17:53:28.945Z,98865.90
2022-11-03T17:56:42.421Z,98854.98
2022-11-03T17:59:57.981Z,98850.67
2022-11-03T18:03:13.218Z,98842.95
2022-11-03T18:06:27.001Z,98843.94
2022-11-03T18:09:39.278Z,98841.97
2022-11-03T18:13:09.801Z,98829.25
2022-11-03T18:16:22.980Z,98841.80
2022-11-03T18:19:36.662Z,98844.70
2022-11-03T18:22:49.626Z,98839.94
2022-11-03T18:26:02.697Z,98844.28
2022-11-03T18:29:15.857Z,98839.66
2022-11-03T18:32:31.837Z,98837.78
2022-11-03T18:35:42.962Z,98832.09
2022-11-03T18:38:57.799Z,98817.58
2022-11-03T18:42:13.174Z,98820.14
2022-11-03T18:45:26.531Z,98820.59
2022-11-03T18:48:39.132Z,98802.58
2022-11-03T18:52:00.928Z,98801.33
2022-11-03T18:55:13.226Z,98795.20
2022-11-03T18:58:28.987Z,98783.03
2022-11-03T19:01:42.037Z,98789.33
2022-11-03T19:04:46.981Z,98746.84
2022-11-03T19:07:59.709Z,98779.27
2022-11-03T19:11:12.245Z,98771.73
2022-11-03T19:14:29.824Z,98761.27
2022-11-03T19:17:43.937Z,98753.88
2022-11-03T19:20:56.329Z,98751.21
2022-11-03T19:24:09.014Z,98757.05
2022-11-03T19:30:36.181Z,98739.34
2022-11-03T19:33:48.963Z,98735.43
2022-11-03T19:37:02.835Z,98725.64
2022-11-03T19:40:22.085Z,98725.64
2022-11-03T19:43:35.212Z,98723.45
2022-11-03T19:46:48.765Z,98713.10
2022-11-03T19:50:01.757Z,98720.48
2022-11-03T19:53:17.674Z,98708.34
2022-11-03T19:56:30.726Z,98695.47
2022-11-03T19:59:43.389Z,98688.89
2022-11-03T20:02:55.750Z,98669.50
2022-11-03T20:06:08.974Z,98698.45
2022-11-03T20:09:24.851Z,98692.33
2022-11-03T20:12:37.566Z,98700.55
2022-11-03T20:15:51.287Z,98691.64
2022-11-03T20:19:05.399Z,98679.09
2022-11-03T20:22:23.964Z,98681.75
2022-11-03T20:25:39.479Z,98682.45
2022-11-03T20:28:53.101Z,98670.45
2022-11-03T20:32:05.946Z,98633.59
2022-11-03T20:35:24.175Z,98661.94
2022-11-03T20:38:37.834Z,98658.45
2022-11-03T20:41:55.566Z,98657.06
2022-11-03T20:45:13.655Z,98660.81
2022-11-03T20:48:26.119Z,98639.20
2022-11-03T20:51:43.359Z,98643.66
2022-11-03T20:54:54.815Z,98640.59
2022-11-03T20:58:07.381Z,98627.20
2022-11-03T21:01:27.212Z,98635.70
2022-11-03T21:04:41.074Z,98592.16
2022-11-03T21:07:54.989Z,98638.05
2022-11-03T21:11:17.949Z,98643.48
2022-11-03T21:14:33.956Z,98630.64
2022-11-03T21:18:00.726Z,98593.36
2022-11-03T21:21:19.663Z,98627.44
2022-11-03T21:24:28.942Z,98622.28
2022-11-03T21:27:42.080Z,98609.19
2022-11-03T21:30:57.912Z,98617.13
2022-11-03T21:34:10.428Z,98604.84
2022-11-03T21:37:23.719Z,98607.50
2022-11-03T21:40:36.548Z,98609.44
2022-11-03T21:44:03.311Z,98599.55
2022-11-03T21:47:17.073Z,98594.80
2022-11-03T21:50:29.750Z,98600.38
2022-11-03T21:53:42.203Z,98573.60
2022-11-03T21:56:54.743Z,98595.50
2022-11-03T22:00:07.215Z,98569.16
2022-11-03T22:03:19.777Z,98556.02
2022-11-03T22:06:32.701Z,98568.45
2022-11-03T22:09:45.149Z,98580.70
2022-11-03T22:12:57.543Z,98572.20
2022-11-03T22:16:24.740Z,98572.74
2022-11-03T22:19:51.380Z,98569.25
2022-11-03T22:23:20.021Z,98564.55
2022-11-03T22:26:47.152Z,98562.30
2022-11-03T22:30:14.147Z,98553.51
2022-11-03T22:33:26.755Z,98555.59
2022-11-03T22:36:38.918Z,98551.27
2022-11-03T22:40:05.636Z,98542.92
2022-11-03T22:43:32.132Z,98545.02
2022-11-03T22:46:44.475Z,98534.84
2022-11-03T22:49:56.656Z,98530.13
2022-11-03T22:53:11.362Z,98526.20
2022-11-03T22:56:24.591Z,98516.59
2022-11-03T22:59:37.122Z,98517.00
2022-11-03T23:02:49.697Z,98505.56
2022-11-03T23:06:05.110Z,98515.45
2022-11-03T23:09:17.817Z,98511.14
2022-11-03T23:12:30.919Z,98508.75
2022-11-03T23:15:43.831Z,98508.05
2022-11-03T23:19:10.267Z,98504.01
2022-11-03T23:22:22.471Z,98492.87
2022-11-03T23:25:34.972Z,98477.84
2022-11-03T23:28:47.713Z,98483.53
2022-11-03T23:32:00.743Z,98469.04
2022-11-03T23:35:15.096Z,98467.05
2022-11-03T23:38:27.307Z,98449.27
2022-11-03T23:41:40.122Z,98459.00
2022-11-03T23:45:06.632Z,98452.02
2022-11-03T23:48:33.409Z,98452.75
2022-11-03T23:51:46.314Z,98444.34
2022-11-03T23:54:58.433Z,98452.27
2022-11-03T23:58:23.024Z,98456.61
